Jonathan, Mississippi
Current Conditions -  °F | °C
As of 5:56 AM on Thursday 23 Oct 2014 (Local Time) from KMOB Reporting Station
Clear Clear  
Wind Chill:   Ceiling: Unl
Heat Index:   Visibility: 10mi
Dew Point:   Wind: 7mph
Humidity: 86%   Direction: 30°NNE
Pressure: 30.08"   Gusts: NA
Location:  31.1153°N, 88.5168°W
Report Text: KMOB 231056Z 03006KT 10SM CLR 09/07 A3008 RMK AO2 SLP186 T00890067
Loading
Personal Weather Stations






























Interactive Weather Map
Tropical Storm Tracking
New forecast layout! Learn more

10-Day Weather Forecast

Advertisements
Track Severe Weather on mobile